createdAt,value
2018-12-03T00:01:32.898Z,9.25
2018-12-03T00:04:18.640Z,10.05
2018-12-03T00:06:47.474Z,12.50
2018-12-03T00:09:16.136Z,13.43
2018-12-03T00:11:44.639Z,14.87
2018-12-03T00:14:13.083Z,15.88
2018-12-03T00:16:41.526Z,17.52
2018-12-03T00:19:10.038Z,18.77
2018-12-03T00:21:38.454Z,19.00
2018-12-03T00:24:07.959Z,19.07
2018-12-03T00:26:36.420Z,17.20
2018-12-03T00:29:05.344Z,16.80
2018-12-03T00:31:33.808Z,15.88
2018-12-03T00:34:02.502Z,16.15
2018-12-03T00:36:31.038Z,17.20
2018-12-03T00:38:59.447Z,16.90
2018-12-03T00:41:27.878Z,16.75
2018-12-03T00:43:56.612Z,18.35
2018-12-03T00:46:25.451Z,19.92
2018-12-03T00:48:53.835Z,21.05
2018-12-03T00:51:22.247Z,21.10
2018-12-03T00:53:50.651Z,21.30
2018-12-03T00:56:19.033Z,21.45
2018-12-03T00:58:47.421Z,20.45
2018-12-03T01:01:16.428Z,20.12
2018-12-03T01:03:44.843Z,18.57
2018-12-03T01:06:13.252Z,17.17
2018-12-03T01:08:41.648Z,16.90
2018-12-03T01:11:10.056Z,16.05
2018-12-03T01:13:38.454Z,15.20
2018-12-03T01:16:06.928Z,15.18
2018-12-03T01:18:35.307Z,14.28
2018-12-03T01:21:03.742Z,13.68
2018-12-03T01:23:32.143Z,13.58
2018-12-03T01:26:00.533Z,14.43
2018-12-03T01:28:28.946Z,14.38
2018-12-03T01:30:57.331Z,13.03
2018-12-03T01:33:25.699Z,13.65
2018-12-03T01:35:54.095Z,12.50
2018-12-03T01:38:22.482Z,11.60
2018-12-03T01:40:50.919Z,11.88
2018-12-03T01:43:19.354Z,11.43
2018-12-03T01:45:47.741Z,11.45
2018-12-03T01:48:16.127Z,11.28
2018-12-03T01:50:44.579Z,10.95
2018-12-03T01:53:12.998Z,10.23
2018-12-03T01:55:42.255Z,10.98
2018-12-03T01:58:10.682Z,11.12
2018-12-03T02:00:39.091Z,11.73
2018-12-03T02:03:07.528Z,12.50
2018-12-03T02:05:35.919Z,12.68
2018-12-03T02:08:04.315Z,12.45
2018-12-03T02:10:32.721Z,12.50
2018-12-03T02:13:01.115Z,13.50
2018-12-03T02:15:29.547Z,12.25
2018-12-03T02:18:05.154Z,11.78
2018-12-03T02:20:33.570Z,12.25
2018-12-03T02:23:01.962Z,11.55
2018-12-03T02:25:30.363Z,11.43
2018-12-03T02:27:58.782Z,14.13
2018-12-03T02:30:27.892Z,11.88
2018-12-03T02:32:56.298Z,12.60
2018-12-03T02:35:24.699Z,11.60
2018-12-03T02:37:53.100Z,12.28
2018-12-03T02:40:21.499Z,11.68
2018-12-03T02:42:49.874Z,12.15
2018-12-03T02:45:18.319Z,10.58
2018-12-03T02:47:46.714Z,11.63
2018-12-03T02:50:15.474Z,10.90
2018-12-03T02:52:43.858Z,11.40
2018-12-03T02:55:13.065Z,10.78
2018-12-03T02:57:41.485Z,10.60
2018-12-03T03:00:12.441Z,11.25
2018-12-03T03:02:41.111Z,10.90
2018-12-03T03:05:11.734Z,11.43
2018-12-03T03:07:40.338Z,12.23
2018-12-03T03:10:11.050Z,13.05
2018-12-03T03:12:39.958Z,13.80
2018-12-03T03:15:09.800Z,14.10
2018-12-03T03:17:38.694Z,14.40
2018-12-03T03:20:08.766Z,13.93
2018-12-03T03:22:37.219Z,14.18
2018-12-03T03:25:06.511Z,14.70
2018-12-03T03:27:34.897Z,14.68
2018-12-03T03:30:03.638Z,13.75
2018-12-03T03:32:32.047Z,14.30
2018-12-03T03:35:00.419Z,13.93
2018-12-03T03:37:28.838Z,13.28
2018-12-03T03:39:57.264Z,13.68
2018-12-03T03:42:25.675Z,13.32
2018-12-03T03:44:54.070Z,12.85
2018-12-03T03:47:22.475Z,12.58
2018-12-03T03:49:50.854Z,13.13
2018-12-03T03:52:19.348Z,12.63
2018-12-03T03:54:47.756Z,12.30
2018-12-03T03:57:16.153Z,12.43
2018-12-03T03:59:44.653Z,12.78
2018-12-03T04:02:13.048Z,12.37
2018-12-03T04:04:41.460Z,11.18
2018-12-03T04:07:09.855Z,11.53
2018-12-03T04:09:38.243Z,10.75
2018-12-03T04:12:06.663Z,9.90
2018-12-03T04:14:35.031Z,9.13
2018-12-03T04:17:03.415Z,10.15
2018-12-03T04:19:31.782Z,9.70
2018-12-03T04:22:00.155Z,9.08
2018-12-03T04:24:28.532Z,9.38
2018-12-03T04:26:56.914Z,7.70
2018-12-03T04:29:25.282Z,8.93
2018-12-03T04:31:54.038Z,7.85
2018-12-03T04:34:22.448Z,8.00
2018-12-03T04:36:51.075Z,7.12
2018-12-03T04:39:19.463Z,6.55
2018-12-03T04:41:47.835Z,6.40
2018-12-03T04:44:16.243Z,5.28
2018-12-03T04:46:44.594Z,4.67
2018-12-03T04:49:13.005Z,10.43
2018-12-03T04:51:41.471Z,3.08
2018-12-03T04:54:09.880Z,2.90
2018-12-03T04:56:38.275Z,3.20
2018-12-03T04:59:06.722Z,1.90
2018-12-03T05:01:35.137Z,1.90
2018-12-03T05:04:03.547Z,1.57
2018-12-03T05:06:31.983Z,1.62
2018-12-03T05:09:00.379Z,1.52
2018-12-03T05:11:28.763Z,1.85
2018-12-03T05:13:57.123Z,1.65
2018-12-03T05:16:25.523Z,1.70
2018-12-03T05:18:54.096Z,2.30
2018-12-03T05:21:22.531Z,1.98
2018-12-03T05:23:50.903Z,2.00
2018-12-03T05:26:20.092Z,2.50
2018-12-03T05:28:48.511Z,2.08
2018-12-03T05:31:16.899Z,2.70
2018-12-03T05:33:45.272Z,2.58
2018-12-03T05:36:13.654Z,2.42
2018-12-03T05:38:42.034Z,2.55
2018-12-03T05:41:10.410Z,3.35
2018-12-03T05:43:38.822Z,3.70
2018-12-03T05:46:07.250Z,4.42
2018-12-03T05:48:35.739Z,4.15
2018-12-03T05:51:04.555Z,4.50
2018-12-03T05:53:32.954Z,5.20
2018-12-03T05:56:01.338Z,5.60
2018-12-03T05:58:29.757Z,5.10
2018-12-03T06:00:58.166Z,4.30
2018-12-03T06:03:26.627Z,3.67
2018-12-03T06:05:55.091Z,3.00
2018-12-03T06:08:23.482Z,2.83
2018-12-03T06:10:51.884Z,3.83
2018-12-03T06:13:20.310Z,3.75
2018-12-03T06:15:48.747Z,4.62
2018-12-03T06:18:17.159Z,4.58
2018-12-03T06:20:45.593Z,3.02
2018-12-03T06:23:14.008Z,3.50
2018-12-03T06:25:42.398Z,3.00
2018-12-03T06:28:10.784Z,2.62
2018-12-03T06:30:39.197Z,3.02
2018-12-03T06:33:07.616Z,2.52
2018-12-03T06:35:36.013Z,2.80
2018-12-03T06:38:04.534Z,2.72
2018-12-03T06:40:33.108Z,2.60
2018-12-03T06:43:01.482Z,3.62
2018-12-03T06:45:29.888Z,2.98
2018-12-03T06:48:02.674Z,2.45
2018-12-03T06:50:31.074Z,2.70
2018-12-03T06:52:59.443Z,3.45
2018-12-03T06:55:27.822Z,2.90
2018-12-03T06:57:56.246Z,3.33
2018-12-03T07:00:25.358Z,2.80
2018-12-03T07:02:53.798Z,2.95
2018-12-03T07:05:22.317Z,3.00
2018-12-03T07:07:52.138Z,4.55
2018-12-03T07:10:21.594Z,4.47
2018-12-03T07:12:51.691Z,4.47
2018-12-03T07:15:21.976Z,4.92
2018-12-03T07:17:52.144Z,4.10
2018-12-03T07:20:20.556Z,4.55
2018-12-03T07:22:49.011Z,4.72
2018-12-03T07:25:17.382Z,4.85
2018-12-03T07:27:45.758Z,5.08
2018-12-03T07:30:18.565Z,6.17
2018-12-03T07:32:47.801Z,5.37
2018-12-03T07:35:23.422Z,5.83
2018-12-03T07:37:53.336Z,5.75
2018-12-03T07:40:21.745Z,5.78
2018-12-03T07:42:50.193Z,4.87
2018-12-03T07:45:21.654Z,4.90
2018-12-03T07:47:54.736Z,4.70
2018-12-03T07:50:24.164Z,5.55
2018-12-03T07:52:52.775Z,4.40
2018-12-03T07:55:23.253Z,6.97
2018-12-03T07:58:01.208Z,4.53
2018-12-03T08:00:34.388Z,4.85
2018-12-03T08:03:02.785Z,3.80
2018-12-03T08:05:31.207Z,3.58
2018-12-03T08:07:59.619Z,4.03
2018-12-03T08:10:28.019Z,2.60
2018-12-03T08:12:56.464Z,5.65
2018-12-03T08:15:25.636Z,2.70
2018-12-03T08:18:00.784Z,3.47
2018-12-03T08:20:51.003Z,4.50
2018-12-03T08:23:33.231Z,4.00
2018-12-03T08:26:02.003Z,2.60
2018-12-03T08:28:30.411Z,4.03
2018-12-03T08:30:59.490Z,6.70
2018-12-03T08:33:27.905Z,5.47
2018-12-03T08:35:56.316Z,4.80
2018-12-03T08:38:24.694Z,2.52
2018-12-03T08:40:53.474Z,6.40
2018-12-03T08:43:21.851Z,3.65
2018-12-03T08:45:54.947Z,7.25
2018-12-03T08:48:23.323Z,4.65
2018-12-03T08:50:51.763Z,3.08
2018-12-03T08:53:20.280Z,6.33
2018-12-03T08:55:48.686Z,5.12
2018-12-03T08:58:17.086Z,5.05
2018-12-03T09:00:46.808Z,4.47
2018-12-03T09:03:20.018Z,3.85
2018-12-03T09:05:48.427Z,4.47
2018-12-03T09:08:16.853Z,5.03
2018-12-03T09:10:45.383Z,4.62
2018-12-03T09:13:22.748Z,4.00
2018-12-03T09:15:57.471Z,3.70
2018-12-03T09:18:31.759Z,5.12
2018-12-03T09:21:00.159Z,4.85
2018-12-03T09:23:28.699Z,3.47
2018-12-03T09:25:57.143Z,4.85
2018-12-03T09:28:25.531Z,10.43
2018-12-03T09:30:53.919Z,6.33
2018-12-03T09:33:22.294Z,5.50
2018-12-03T09:35:50.695Z,8.13
2018-12-03T09:38:19.086Z,7.78
2018-12-03T09:40:47.485Z,8.30
2018-12-03T09:43:15.910Z,7.55
2018-12-03T09:45:44.320Z,7.95
2018-12-03T09:48:12.691Z,8.60
2018-12-03T09:50:41.165Z,5.35
2018-12-03T09:53:09.585Z,7.62
2018-12-03T09:55:38.026Z,6.87
2018-12-03T09:58:10.228Z,5.10
2018-12-03T10:00:37.578Z,6.97
2018-12-03T10:03:11.043Z,5.62
2018-12-03T10:05:42.648Z,6.65
2018-12-03T10:08:11.058Z,5.20
2018-12-03T10:10:39.458Z,6.08
2018-12-03T10:13:09.181Z,5.35
2018-12-03T10:15:37.548Z,5.20
2018-12-03T10:18:06.132Z,4.92
2018-12-03T10:20:34.515Z,4.65
2018-12-03T10:23:02.898Z,6.03
2018-12-03T10:25:31.338Z,6.40
2018-12-03T10:28:09.603Z,7.37
2018-12-03T10:30:38.023Z,5.40
2018-12-03T10:33:07.297Z,6.83
2018-12-03T10:35:38.871Z,7.22
2018-12-03T10:38:09.512Z,6.35
2018-12-03T10:40:43.219Z,6.83
2018-12-03T10:43:12.361Z,7.05
2018-12-03T10:45:40.915Z,5.12
2018-12-03T10:48:09.406Z,9.73
2018-12-03T10:50:37.844Z,6.62
2018-12-03T10:53:06.379Z,8.93
2018-12-03T10:55:39.647Z,6.87
2018-12-03T10:58:08.138Z,9.65
2018-12-03T11:00:41.786Z,10.23
2018-12-03T11:03:13.638Z,8.25
2018-12-03T11:06:46.069Z,6.17
2018-12-03T11:09:14.471Z,7.37
2018-12-03T11:11:47.818Z,8.35
2018-12-03T11:14:16.909Z,9.58
2018-12-03T11:16:47.011Z,7.47
2018-12-03T11:19:15.460Z,9.80
2018-12-03T11:21:43.979Z,8.73
2018-12-03T11:24:15.738Z,7.80
2018-12-03T11:26:44.811Z,8.48
2018-12-03T11:29:13.673Z,9.18
2018-12-03T11:31:42.092Z,11.55
2018-12-03T11:34:10.558Z,10.55
2018-12-03T11:36:41.520Z,9.93
2018-12-03T11:39:14.277Z,10.55
2018-12-03T11:41:42.827Z,13.05
2018-12-03T11:44:11.279Z,12.28
2018-12-03T11:46:39.753Z,11.50
2018-12-03T11:49:08.452Z,11.30
2018-12-03T11:51:36.892Z,9.40
2018-12-03T11:54:05.683Z,11.85
2018-12-03T11:56:34.095Z,13.78
2018-12-03T11:59:03.185Z,13.08
2018-12-03T12:01:30.970Z,13.15
2018-12-03T12:03:59.359Z,9.70
2018-12-03T12:06:27.791Z,11.33
2018-12-03T12:08:56.431Z,9.88
2018-12-03T12:11:24.895Z,10.72
2018-12-03T12:13:53.301Z,11.33
2018-12-03T12:16:21.719Z,12.88
2018-12-03T12:18:50.147Z,12.73
2018-12-03T12:21:18.533Z,11.18
2018-12-03T12:23:47.030Z,10.50
2018-12-03T12:26:15.411Z,13.65
2018-12-03T12:28:43.794Z,11.38
2018-12-03T12:31:12.440Z,8.23
2018-12-03T12:33:40.851Z,10.85
2018-12-03T12:36:09.269Z,9.90
2018-12-03T12:38:37.659Z,9.43
2018-12-03T12:41:06.234Z,8.83
2018-12-03T12:43:34.775Z,8.80
2018-12-03T12:46:08.145Z,8.28
2018-12-03T12:48:36.551Z,9.78
2018-12-03T12:51:05.015Z,9.53
2018-12-03T12:53:33.450Z,11.75
2018-12-03T12:56:02.423Z,9.25
2018-12-03T12:58:30.863Z,11.00
2018-12-03T13:00:59.281Z,9.65
2018-12-03T13:03:27.723Z,9.38
2018-12-03T13:05:56.707Z,9.65
2018-12-03T13:08:24.619Z,8.85
2018-12-03T13:10:53.131Z,10.50
2018-12-03T13:13:21.542Z,11.70
2018-12-03T13:15:49.940Z,11.55
2018-12-03T13:18:18.340Z,11.40
2018-12-03T13:20:47.310Z,12.30
2018-12-03T13:23:15.769Z,13.30
2018-12-03T13:25:44.196Z,10.32
2018-12-03T13:28:12.844Z,11.15
2018-12-03T13:30:41.302Z,11.05
2018-12-03T13:33:09.772Z,12.58
2018-12-03T13:35:38.239Z,11.33
2018-12-03T13:38:06.734Z,12.90
2018-12-03T13:40:35.161Z,13.18
2018-12-03T13:43:03.661Z,11.45
2018-12-03T13:45:32.186Z,15.18
2018-12-03T13:48:00.916Z,15.32
2018-12-03T13:50:30.219Z,14.55
2018-12-03T13:52:58.585Z,13.25
2018-12-03T13:55:26.995Z,12.23
2018-12-03T13:57:55.385Z,13.72
2018-12-03T14:00:25.228Z,12.53
2018-12-03T14:03:01.744Z,14.20
2018-12-03T14:05:32.775Z,15.68
2018-12-03T14:08:10.315Z,14.15
2018-12-03T14:11:22.947Z,16.75
2018-12-03T14:14:10.830Z,15.03
2018-12-03T14:16:51.427Z,13.10
2018-12-03T14:19:25.621Z,14.80
2018-12-03T14:22:11.834Z,11.48
2018-12-03T14:24:40.310Z,13.13
2018-12-03T14:27:08.741Z,10.28
2018-12-03T14:29:37.150Z,14.50
2018-12-03T14:32:06.242Z,16.48
2018-12-03T14:34:34.654Z,13.58
2018-12-03T14:37:03.236Z,13.68
2018-12-03T14:39:31.780Z,14.23
2018-12-03T14:42:00.258Z,13.18
2018-12-03T14:44:28.768Z,17.07
2018-12-03T14:46:57.472Z,21.10
2018-12-03T14:49:25.944Z,15.00
2018-12-03T14:51:54.442Z,11.25
2018-12-03T14:54:22.863Z,12.53
2018-12-03T14:56:51.381Z,14.83
2018-12-03T14:59:19.911Z,12.50
2018-12-03T15:01:48.391Z,14.13
2018-12-03T15:04:16.819Z,14.43
2018-12-03T15:06:45.259Z,15.93
2018-12-03T15:09:13.652Z,12.53
2018-12-03T15:11:42.066Z,16.07
2018-12-03T15:14:10.503Z,19.30
2018-12-03T15:16:39.531Z,13.72
2018-12-03T15:19:11.622Z,11.68
2018-12-03T15:21:36.603Z,15.95
2018-12-03T15:24:05.040Z,16.60
2018-12-03T15:26:38.328Z,17.73
2018-12-03T15:29:06.812Z,13.28
2018-12-03T15:31:35.279Z,17.25
2018-12-03T15:34:03.731Z,11.55
2018-12-03T15:36:32.236Z,16.02
2018-12-03T15:39:00.633Z,15.18
2018-12-03T15:41:29.084Z,14.83
2018-12-03T15:43:57.564Z,14.07
2018-12-03T15:46:26.015Z,16.05
2018-12-03T15:48:54.515Z,16.93
2018-12-03T15:51:23.054Z,13.93
2018-12-03T15:53:51.483Z,13.22
2018-12-03T15:56:19.910Z,13.60
2018-12-03T15:58:48.380Z,14.53
2018-12-03T16:01:16.796Z,13.03
2018-12-03T16:03:45.215Z,13.55
2018-12-03T16:06:13.682Z,16.57
2018-12-03T16:08:42.138Z,14.07
2018-12-03T16:11:11.156Z,14.45
2018-12-03T16:13:39.044Z,14.25
2018-12-03T16:16:07.480Z,16.57
2018-12-03T16:18:35.973Z,15.93
2018-12-03T16:21:04.418Z,16.23
2018-12-03T16:23:32.868Z,12.55
2018-12-03T16:26:02.805Z,15.40
2018-12-03T16:28:31.259Z,15.18
2018-12-03T16:30:59.683Z,15.25
2018-12-03T16:33:28.123Z,15.50
2018-12-03T16:35:56.534Z,15.85
2018-12-03T16:38:24.976Z,15.70
2018-12-03T16:40:53.477Z,20.45
2018-12-03T16:43:21.876Z,15.45
2018-12-03T16:46:19.618Z,17.70
2018-12-03T16:48:48.044Z,15.72
2018-12-03T16:51:16.449Z,16.37
2018-12-03T16:53:44.871Z,15.75
2018-12-03T16:56:13.266Z,18.20
2018-12-03T16:58:41.684Z,15.18
2018-12-03T17:01:10.100Z,13.38
2018-12-03T17:03:38.547Z,14.18
2018-12-03T17:06:06.991Z,17.50
2018-12-03T17:08:35.417Z,14.53
2018-12-03T17:11:04.046Z,12.25
2018-12-03T17:13:32.452Z,12.23
2018-12-03T17:16:00.990Z,12.90
2018-12-03T17:18:29.484Z,15.23
2018-12-03T17:21:05.584Z,17.48
2018-12-03T17:24:15.055Z,14.95
2018-12-03T17:26:43.516Z,14.73
2018-12-03T17:29:12.007Z,13.40
2018-12-03T17:31:40.574Z,10.75
2018-12-03T17:34:09.004Z,12.25
2018-12-03T17:36:37.559Z,15.28
2018-12-03T17:39:07.692Z,12.60
2018-12-03T17:41:36.114Z,11.63
2018-12-03T17:44:05.508Z,13.48
2018-12-03T17:46:33.920Z,14.23
2018-12-03T17:49:02.480Z,16.02
2018-12-03T17:51:31.020Z,14.65
2018-12-03T17:53:59.433Z,15.48
2018-12-03T17:56:27.984Z,10.10
2018-12-03T17:58:56.444Z,13.00
2018-12-03T18:01:24.854Z,18.15
2018-12-03T18:03:53.243Z,11.80
2018-12-03T18:06:21.678Z,12.15
2018-12-03T18:08:50.099Z,14.20
2018-12-03T18:11:18.520Z,15.55
2018-12-03T18:13:47.006Z,11.15
2018-12-03T18:16:15.483Z,14.40
2018-12-03T18:18:43.929Z,15.50
2018-12-03T18:21:12.359Z,10.63
2018-12-03T18:23:40.789Z,10.90
2018-12-03T18:26:09.403Z,12.88
2018-12-03T18:28:37.960Z,12.95
2018-12-03T18:31:06.374Z,9.93
2018-12-03T18:33:34.790Z,9.63
2018-12-03T18:36:03.284Z,14.30
2018-12-03T18:38:31.447Z,12.30
2018-12-03T18:41:03.274Z,11.38
2018-12-03T18:43:29.903Z,12.95
2018-12-03T18:45:58.195Z,10.65
2018-12-03T18:48:26.419Z,8.80
2018-12-03T18:50:55.091Z,8.63
2018-12-03T18:53:24.448Z,10.25
2018-12-03T18:55:53.167Z,11.15
2018-12-03T18:58:31.657Z,12.90
2018-12-03T19:00:59.877Z,13.10
2018-12-03T19:03:28.103Z,12.65
2018-12-03T19:05:56.280Z,14.78
2018-12-03T19:08:24.498Z,11.45
2018-12-03T19:10:52.975Z,10.58
2018-12-03T19:13:21.126Z,12.80
2018-12-03T19:15:49.297Z,11.75
2018-12-03T19:18:17.474Z,10.72
2018-12-03T19:20:45.646Z,12.55
2018-12-03T19:23:13.807Z,9.98
2018-12-03T19:25:42.510Z,11.53
2018-12-03T19:28:10.694Z,11.38
2018-12-03T19:30:38.860Z,11.90
2018-12-03T19:33:07.039Z,11.57
2018-12-03T19:35:35.242Z,12.03
2018-12-03T19:38:03.413Z,14.10
2018-12-03T19:40:31.615Z,9.10
2018-12-03T19:42:59.860Z,10.25
2018-12-03T19:45:28.040Z,7.97
2018-12-03T19:47:56.190Z,11.53
2018-12-03T19:50:24.378Z,7.83
2018-12-03T19:52:53.584Z,12.53
2018-12-03T19:55:22.785Z,8.95
2018-12-03T19:57:55.026Z,7.62
2018-12-03T20:00:23.189Z,7.75
2018-12-03T20:02:51.371Z,13.58
2018-12-03T20:05:19.547Z,9.03
2018-12-03T20:07:47.758Z,8.00
2018-12-03T20:10:16.019Z,9.85
2018-12-03T20:12:44.884Z,7.28
2018-12-03T20:15:13.035Z,8.75
2018-12-03T20:17:42.030Z,7.55
2018-12-03T20:20:14.453Z,9.28
2018-12-03T20:22:49.118Z,10.32
2018-12-03T20:25:18.951Z,10.70
2018-12-03T20:27:53.027Z,8.63
2018-12-03T20:30:59.704Z,6.97
2018-12-03T20:33:32.055Z,6.80
2018-12-03T20:36:22.575Z,6.90
2018-12-03T20:39:03.120Z,9.50
2018-12-03T20:41:33.208Z,8.73
2018-12-03T20:44:10.045Z,11.53
2018-12-03T20:46:43.888Z,7.10
2018-12-03T20:49:31.430Z,9.48
2018-12-03T20:52:32.701Z,9.58
2018-12-03T20:55:04.427Z,8.45
2018-12-03T20:57:32.700Z,10.72
2018-12-03T21:00:00.961Z,7.28
2018-12-03T21:02:29.132Z,10.82
2018-12-03T21:04:57.308Z,8.13
2018-12-03T21:07:25.561Z,12.20
2018-12-03T21:09:53.705Z,8.28
2018-12-03T21:12:21.882Z,10.53
2018-12-03T21:14:50.065Z,9.48
2018-12-03T21:17:18.920Z,9.13
2018-12-03T21:19:49.944Z,9.70
2018-12-03T21:22:18.163Z,11.85
2018-12-03T21:24:46.361Z,8.38
2018-12-03T21:27:14.543Z,10.82
2018-12-03T21:29:42.674Z,12.80
2018-12-03T21:32:10.882Z,11.53
2018-12-03T21:34:39.170Z,10.38
2018-12-03T21:37:07.322Z,8.98
2018-12-03T21:39:35.475Z,9.43
2018-12-03T21:42:03.713Z,11.43
2018-12-03T21:44:31.908Z,8.75
2018-12-03T21:47:00.088Z,9.78
2018-12-03T21:49:28.250Z,11.68
2018-12-03T21:51:56.426Z,11.65
2018-12-03T21:54:24.609Z,10.45
2018-12-03T21:56:52.763Z,9.05
2018-12-03T21:59:21.046Z,8.80
2018-12-03T22:01:49.203Z,9.73
2018-12-03T22:04:17.365Z,9.28
2018-12-03T22:06:45.554Z,10.75
2018-12-03T22:09:13.720Z,11.00
2018-12-03T22:11:41.902Z,10.70
2018-12-03T22:14:10.038Z,8.08
2018-12-03T22:16:38.238Z,7.87
2018-12-03T22:19:06.454Z,7.65
2018-12-03T22:21:34.781Z,8.70
2018-12-03T22:24:02.919Z,8.53
2018-12-03T22:26:31.112Z,8.85
2018-12-03T22:28:59.300Z,8.58
2018-12-03T22:31:27.462Z,8.65
2018-12-03T22:33:55.655Z,9.18
2018-12-03T22:36:23.817Z,8.33
2018-12-03T22:38:51.980Z,10.58
2018-12-03T22:41:20.187Z,10.25
2018-12-03T22:43:48.342Z,9.70
2018-12-03T22:46:16.563Z,10.90
2018-12-03T22:48:44.713Z,9.60
2018-12-03T22:51:13.066Z,12.88
2018-12-03T22:53:41.263Z,8.43
2018-12-03T22:56:09.517Z,8.53
2018-12-03T22:58:37.683Z,8.90
2018-12-03T23:01:07.020Z,9.68
2018-12-03T23:03:35.306Z,10.45
2018-12-03T23:06:03.602Z,8.63
2018-12-03T23:08:31.762Z,11.78
2018-12-03T23:10:59.885Z,8.83
2018-12-03T23:13:28.133Z,8.13
2018-12-03T23:15:56.314Z,8.90
2018-12-03T23:18:24.502Z,12.98
2018-12-03T23:20:52.657Z,12.80
2018-12-03T23:23:20.859Z,10.70
2018-12-03T23:25:49.026Z,13.00
2018-12-03T23:28:17.236Z,11.50
2018-12-03T23:30:45.491Z,14.90
2018-12-03T23:33:14.568Z,8.73
2018-12-03T23:35:42.717Z,6.75
2018-12-03T23:38:10.865Z,5.33
2018-12-03T23:40:39.030Z,5.67
2018-12-03T23:43:07.290Z,3.92
2018-12-03T23:45:35.713Z,5.75
2018-12-03T23:48:04.236Z,5.62
2018-12-03T23:50:32.703Z,5.92
2018-12-03T23:53:01.091Z,3.70
2018-12-03T23:55:29.471Z,8.05
2018-12-03T23:57:57.875Z,7.45
